Time;durP1;ratioP1;P1;durP2;ratioP2;P2;SDS_P1;SDS_P2;PMS_P1;PMS_P2;Temp;Humidity;BMP_temperature;BMP_pressure;BME280_temperature;BME280_humidity;BME280_pressure;Samples;Min_cycle;Max_cycle;Signal;HPM_P1;HPM_P2
2021/11/17 02:27:19;;;;;;;;;;;;;;;2.09;87.44;100961.00;1583228;90;20159;-76
2021/11/17 02:29:58;;;;;;;;;;;;;;;2.07;87.43;100966.38;1581640;90;20163;-76
2021/11/17 02:32:31;;;;;;;;;;;;;;;2.09;87.44;100955.27;1582139;90;20191;-76
2021/11/17 02:35:33;;;;;;;;;;;;;;;2.08;87.43;100961.47;1582949;88;21980;-75
2021/11/17 02:38:12;;;;;;;;;;;;;;;2.06;87.42;100960.74;1585140;90;20198;-75
2021/11/17 02:40:54;;;;;;;;;;;;;;;2.03;87.45;100960.95;1632261;86;20194;-76
2021/11/17 02:43:36;;;;;;;;;;;;;;;1.99;87.43;100956.36;1625391;87;20312;-76
2021/11/17 02:46:35;;;;;;;;;;;;;;;2.02;87.47;100956.63;1628366;85;20142;-76
2021/11/17 02:49:08;;;;;;;;;;;;;;;2.02;87.46;100953.99;1629062;88;21323;-76
2021/11/17 02:51:52;;;;;;;;;;;;;;;1.98;87.46;100948.09;1629856;86;20477;-76
2021/11/17 02:54:25;;;;;;;;;;;;;;;1.98;87.47;100953.36;1629479;86;20497;-76
2021/11/17 02:57:12;;;;;;;;;;;;;;;2.01;87.48;100955.78;1629117;86;20198;-75
2021/11/17 03:00:09;;;;;;;;;;;;;;;2.03;87.47;100948.27;1628959;88;20682;-76
2021/11/17 03:02:42;;;;;;;;;;;;;;;2.04;87.48;100952.13;1629101;88;21329;-75
2021/11/17 03:05:35;;;;;;;;;;;;;;;2.01;87.49;100948.36;1628516;88;20489;-76
2021/11/17 03:08:14;;;;;;;;;;;;;;;2.00;87.47;100949.33;1629076;87;20501;-76
2021/11/17 03:11:01;;;;;;;;;;;;;;;2.01;87.51;100949.20;1629560;86;20434;-76
2021/11/17 03:13:43;;;;;;;;;;;;;;;2.02;87.50;100944.79;1629129;87;20177;-76
2021/11/17 03:16:28;;;;;;;;;;;;;;;2.03;87.50;100949.12;1628730;87;21213;-76
2021/11/17 03:19:10;;;;;;;;;;;;;;;2.02;87.50;100944.79;1629016;87;20457;-76
2021/11/17 03:21:45;;;;;;;;;;;;;;;2.01;87.49;100945.73;1628968;87;20465;-75
2021/11/17 03:24:24;;;;;;;;;;;;;;;1.98;87.50;100948.09;1629118;87;20166;-76
2021/11/17 03:27:03;;;;;;;;;;;;;;;1.96;87.49;100947.84;1629116;87;20214;-76
2021/11/17 03:29:50;;;;;;;;;;;;;;;1.96;87.50;100940.80;1628549;86;21176;-76
2021/11/17 03:32:29;;;;;;;;;;;;;;;1.99;87.52;100945.00;1628196;87;20265;-76
2021/11/17 03:35:14;;;;;;;;;;;;;;;2.05;87.53;100944.58;1628887;88;20218;-75
2021/11/17 03:37:52;;;;;;;;;;;;;;;2.11;87.54;100945.48;1629047;88;20445;-76
2021/11/17 03:40:31;;;;;;;;;;;;;;;2.12;87.53;100947.64;1629124;86;20506;-76
2021/11/17 03:43:03;;;;;;;;;;;;;;;2.10;87.54;100947.77;1628971;88;21170;-75
2021/11/17 03:45:48;;;;;;;;;;;;;;;2.09;87.56;100941.27;1627825;86;20186;-75
2021/11/17 03:48:26;;;;;;;;;;;;;;;2.08;87.58;100947.00;1629173;88;20482;-76
2021/11/17 03:51:02;;;;;;;;;;;;;;;2.00;87.57;100946.23;1628595;88;20146;-76
2021/11/17 03:53:48;;;;;;;;;;;;;;;2.02;87.55;100946.11;1628584;87;20198;-76
2021/11/17 03:56:23;;;;;;;;;;;;;;;1.93;87.56;100942.78;1628480;86;21964;-76
2021/11/17 03:59:05;;;;;;;;;;;;;;;1.91;87.56;100935.45;1629014;88;20150;-76
2021/11/17 04:02:06;;;;;;;;;;;;;;;1.87;87.58;100930.02;1628602;86;20162;-77
2021/11/17 04:04:56;;;;;;;;;;;;;;;1.89;87.57;100931.63;1628905;88;20158;-76
2021/11/17 04:07:29;;;;;;;;;;;;;;;1.87;87.58;100926.92;1629292;88;20165;-77
2021/11/17 04:10:24;;;;;;;;;;;;;;;1.81;87.60;100930.44;1628530;85;21171;-76
2021/11/17 04:13:00;;;;;;;;;;;;;;;1.76;87.60;100926.78;1629135;88;20481;-76
2021/11/17 04:15:41;;;;;;;;;;;;;;;1.78;87.58;100925.38;1629299;87;20209;-76
2021/11/17 04:18:14;;;;;;;;;;;;;;;1.80;87.57;100920.85;1635029;86;20230;-76
2021/11/17 04:20:52;;;;;;;;;;;;;;;1.81;87.58;100926.48;1628380;87;20142;-77
2021/11/17 04:23:25;;;;;;;;;;;;;;;1.83;87.58;100919.36;1627792;85;21144;-76
2021/11/17 04:26:15;;;;;;;;;;;;;;;1.85;87.59;100916.14;1628807;88;20223;-76
2021/11/17 04:28:56;;;;;;;;;;;;;;;1.88;87.61;100919.88;1629165;87;20166;-76
2021/11/17 04:31:38;;;;;;;;;;;;;;;1.83;87.57;100920.67;1628500;87;20175;-76
2021/11/17 04:34:28;;;;;;;;;;;;;;;1.87;87.58;100918.19;1600310;88;20213;-76
2021/11/17 04:36:58;;;;;;;;;;;;;;;1.92;87.59;100921.37;1628431;88;21827;-76
2021/11/17 04:39:43;;;;;;;;;;;;;;;1.98;87.59;100922.27;1631442;86;20443;-76
2021/11/17 04:42:12;;;;;;;;;;;;;;;2.03;87.60;100920.65;1628833;86;20217;-76
2021/11/17 04:45:03;;;;;;;;;;;;;;;2.08;87.59;100912.81;1629002;85;20377;-76
2021/11/17 04:47:38;;;;;;;;;;;;;;;2.14;87.59;100917.68;1628371;87;20194;-76
2021/11/17 04:50:29;;;;;;;;;;;;;;;2.15;87.60;100916.70;1629233;88;21236;-76
2021/11/17 04:53:16;;;;;;;;;;;;;;;2.18;87.62;100915.19;1628406;87;20169;-76
2021/11/17 04:55:48;;;;;;;;;;;;;;;2.24;87.63;100910.84;1628798;86;20470;-76
2021/11/17 04:58:27;;;;;;;;;;;;;;;2.29;87.62;100915.30;1628613;88;20525;-77
2021/11/17 05:01:05;;;;;;;;;;;;;;;2.34;87.64;100916.31;1629341;87;20158;-76
2021/11/17 05:03:36;;;;;;;;;;;;;;;2.36;87.62;100913.94;1629207;87;21733;-76
2021/11/17 05:06:31;;;;;;;;;;;;;;;2.34;87.62;100913.21;1629358;86;20157;-76
2021/11/17 05:09:28;;;;;;;;;;;;;;;2.35;87.63;100908.33;1628973;88;20205;-76
2021/11/17 05:12:07;;;;;;;;;;;;;;;2.34;87.64;100908.42;1629016;88;20741;-76
2021/11/17 05:14:43;;;;;;;;;;;;;;;2.35;87.63;100905.69;1628993;88;20190;-76
2021/11/17 05:17:18;;;;;;;;;;;;;;;2.35;87.64;100907.48;1628471;87;21995;-77
2021/11/17 05:20:09;;;;;;;;;;;;;;;2.38;87.64;100909.42;1629053;88;20160;-76
2021/11/17 05:22:51;;;;;;;;;;;;;;;2.39;87.63;100912.41;1637794;87;20150;-76
2021/11/17 05:25:52;;;;;;;;;;;;;;;2.39;87.60;100903.19;1629564;88;20285;-76
2021/11/17 05:28:37;;;;;;;;;;;;;;;2.39;87.60;100904.51;1629172;87;20178;-76
2021/11/17 05:31:10;;;;;;;;;;;;;;;2.40;87.60;100900.09;1629111;87;21951;-76
2021/11/17 05:33:59;;;;;;;;;;;;;;;2.39;87.61;100899.25;1629096;86;20461;-76
2021/11/17 05:36:31;;;;;;;;;;;;;;;2.37;87.63;100901.16;1629124;88;20441;-76
2021/11/17 05:39:17;;;;;;;;;;;;;;;2.37;87.64;100900.30;1617850;88;20324;-76
2021/11/17 05:41:56;;;;;;;;;;;;;;;2.34;87.63;100897.89;1629176;88;20502;-76
2021/11/17 05:44:45;;;;;;;;;;;;;;;2.29;87.64;100908.72;1628983;87;22159;-76
2021/11/17 05:47:27;;;;;;;;;;;;;;;2.26;87.66;100913.35;1629168;87;20162;-76
2021/11/17 05:50:22;;;;;;;;;;;;;;;2.23;87.63;100914.41;1628645;88;20166;-75
2021/11/17 05:52:52;;;;;;;;;;;;;;;2.25;87.61;100911.69;1628925;88;20178;-77
2021/11/17 05:55:24;;;;;;;;;;;;;;;2.33;87.58;100910.20;1629214;87;20161;-77
2021/11/17 05:57:59;;;;;;;;;;;;;;;2.36;87.56;100912.62;1628508;88;21983;-77
2021/11/17 06:00:50;;;;;;;;;;;;;;;2.37;87.57;100912.16;1629113;87;20154;-77
2021/11/17 06:03:40;;;;;;;;;;;;;;;2.34;87.55;100913.68;1629059;87;20165;-77
2021/11/17 06:06:06;;;;;;;;;;;;;;;2.30;87.57;100922.26;1629216;88;20326;-75
2021/11/17 06:08:31;;;;;;;;;;;;;;;2.33;87.55;100922.05;1629145;87;20214;-75
2021/11/17 06:10:59;;;;;;;;;;;;;;;2.33;87.53;100920.73;1629186;88;21120;-75
2021/11/17 06:13:25;;;;;;;;;;;;;;;2.30;87.54;100914.83;1629063;88;20608;-75
2021/11/17 06:15:51;;;;;;;;;;;;;;;2.23;87.55;100915.73;1628755;88;20158;-76
2021/11/17 06:18:21;;;;;;;;;;;;;;;2.22;87.55;100920.61;1629051;87;20243;-76
2021/11/17 06:20:47;;;;;;;;;;;;;;;2.23;87.56;100923.62;1629110;88;20185;-76
2021/11/17 06:23:19;;;;;;;;;;;;;;;2.25;87.58;100926.98;1629380;87;21651;-76
2021/11/17 06:25:45;;;;;;;;;;;;;;;2.24;87.59;100929.27;1629099;88;20418;-75
2021/11/17 06:28:14;;;;;;;;;;;;;;;2.25;87.59;100928.29;1628955;88;20431;-75
2021/11/17 06:30:39;;;;;;;;;;;;;;;2.20;87.59;100922.98;1615618;88;20190;-75
2021/11/17 06:33:06;;;;;;;;;;;;;;;2.11;87.57;100925.75;1629081;88;20292;-75
2021/11/17 06:35:35;;;;;;;;;;;;;;;2.13;87.55;100930.45;1628889;87;21834;-76
2021/11/17 06:38:00;;;;;;;;;;;;;;;2.18;87.57;100932.28;1628814;87;20154;-76
2021/11/17 06:40:26;;;;;;;;;;;;;;;2.16;87.55;100935.50;1628961;86;20199;-76
2021/11/17 06:42:54;;;;;;;;;;;;;;;2.20;87.55;100925.15;1629125;88;20177;-76
2021/11/17 06:45:24;;;;;;;;;;;;;;;2.21;87.53;100924.21;1631720;86;20166;-76
2021/11/17 06:47:50;;;;;;;;;;;;;;;2.17;87.54;100933.25;1653583;87;21223;-77
2021/11/17 06:50:17;;;;;;;;;;;;;;;2.16;87.53;100927.61;1653585;87;20196;-76
2021/11/17 06:52:43;;;;;;;;;;;;;;;2.14;87.52;100926.89;1653560;87;20174;-76
2021/11/17 06:55:09;;;;;;;;;;;;;;;2.12;87.51;100934.02;1653643;87;20184;-76
2021/11/17 06:57:35;;;;;;;;;;;;;;;2.14;87.47;100932.61;1653667;87;20190;-76
2021/11/17 07:00:03;;;;;;;;;;;;;;;2.06;87.47;100931.81;1653653;86;20749;-76
2021/11/17 07:02:29;;;;;;;;;;;;;;;2.06;87.45;100927.02;1653204;87;20477;-76
2021/11/17 07:04:54;;;;;;;;;;;;;;;2.08;87.46;100931.22;1653594;87;20163;-76
2021/11/17 07:07:20;;;;;;;;;;;;;;;2.03;87.43;100933.33;1653475;86;20220;-76
2021/11/17 07:09:46;;;;;;;;;;;;;;;2.02;87.41;100934.27;1653754;87;20180;-76
2021/11/17 07:12:13;;;;;;;;;;;;;;;2.01;87.43;100930.80;1653732;87;21119;-76
2021/11/17 07:14:39;;;;;;;;;;;;;;;2.04;87.42;100937.66;1653478;87;20467;-75
2021/11/17 07:17:05;;;;;;;;;;;;;;;2.08;87.41;100930.38;1653666;87;20497;-76
2021/11/17 07:19:31;;;;;;;;;;;;;;;2.11;87.40;100935.45;1653678;87;20222;-76
2021/11/17 07:21:59;;;;;;;;;;;;;;;2.16;87.39;100936.82;1653794;86;20174;-76
2021/11/17 07:24:25;;;;;;;;;;;;;;;2.24;87.40;100931.89;1653326;87;21121;-76
2021/11/17 07:26:51;;;;;;;;;;;;;;;2.30;87.39;100930.16;1653471;86;20202;-75
2021/11/17 07:29:17;;;;;;;;;;;;;;;2.40;87.43;100932.52;1653551;86;20212;-75
2021/11/17 07:31:43;;;;;;;;;;;;;;;2.43;87.41;100933.62;1653528;87;20485;-75
2021/11/17 07:34:08;;;;;;;;;;;;;;;2.51;87.43;100936.58;1653620;87;20481;-75
2021/11/17 07:36:34;;;;;;;;;;;;;;;2.61;87.46;100939.88;1653186;87;21216;-75
2021/11/17 07:39:01;;;;;;;;;;;;;;;2.69;87.46;100942.84;1653542;86;20243;-76
2021/11/17 07:41:27;;;;;;;;;;;;;;;2.73;87.46;100937.73;1653162;87;20462;-76
2021/11/17 07:43:52;;;;;;;;;;;;;;;2.75;87.46;100939.77;1653752;86;20197;-76
2021/11/17 07:46:18;;;;;;;;;;;;;;;2.80;87.46;100940.30;1653500;86;20177;-75
2021/11/17 07:48:44;;;;;;;;;;;;;;;2.83;87.47;100934.81;1653765;87;21232;-75
2021/11/17 07:51:10;;;;;;;;;;;;;;;2.89;87.48;100934.38;1653560;87;20224;-75
2021/11/17 07:53:36;;;;;;;;;;;;;;;2.96;87.51;100933.00;1650379;87;20192;-76
2021/11/17 07:56:03;;;;;;;;;;;;;;;3.02;87.51;100939.17;1651919;85;20169;-76
2021/11/17 07:58:31;;;;;;;;;;;;;;;3.11;87.50;100938.98;1646132;87;20174;-76
2021/11/17 08:00:58;;;;;;;;;;;;;;;3.17;87.53;100936.74;1653741;87;21056;-76
2021/11/17 08:03:25;;;;;;;;;;;;;;;3.20;87.54;100933.88;1661195;85;20183;-76
2021/11/17 08:05:51;;;;;;;;;;;;;;;3.29;87.53;100932.40;1646824;87;20336;-76
2021/11/17 08:08:18;;;;;;;;;;;;;;;3.32;87.50;100936.97;1648763;86;20170;-76
2021/11/17 08:10:43;;;;;;;;;;;;;;;3.39;87.50;100936.05;1643737;86;20166;-76
2021/11/17 08:13:09;;;;;;;;;;;;;;;3.41;87.50;100932.84;1606144;89;21106;-76
2021/11/17 08:15:36;;;;;;;;;;;;;;;3.47;87.52;100944.25;1609748;89;20196;-76
2021/11/17 08:18:01;;;;;;;;;;;;;;;3.50;87.53;100943.55;1609706;89;20183;-76
2021/11/17 08:20:27;;;;;;;;;;;;;;;3.57;87.51;100947.05;1609751;89;20216;-76
2021/11/17 08:22:54;;;;;;;;;;;;;;;3.61;87.48;100948.52;1609863;89;20189;-76
2021/11/17 08:25:23;;;;;;;;;;;;;;;3.66;87.51;100942.45;1619328;88;21102;-76
2021/11/17 08:27:49;;;;;;;;;;;;;;;3.73;87.51;100950.27;1613968;88;20156;-77
2021/11/17 08:30:16;;;;;;;;;;;;;;;3.79;87.51;100949.81;1605898;89;20176;-76
2021/11/17 08:32:42;;;;;;;;;;;;;;;3.83;87.48;100953.91;1605409;87;20482;-76
2021/11/17 08:35:09;;;;;;;;;;;;;;;3.89;87.48;100952.13;1605740;88;20186;-77
2021/11/17 08:37:35;;;;;;;;;;;;;;;3.94;87.49;100953.96;1605560;88;21211;-76
2021/11/17 08:40:07;;;;;;;;;;;;;;;3.96;87.48;100952.04;1582297;89;20150;-77
2021/11/17 08:42:33;;;;;;;;;;;;;;;3.96;87.47;100956.00;1626191;87;20495;-76
2021/11/17 08:44:59;;;;;;;;;;;;;;;4.00;87.47;100958.77;1621288;87;20177;-76
2021/11/17 08:47:25;;;;;;;;;;;;;;;4.03;87.45;100961.18;1604618;88;20246;-77
2021/11/17 08:49:54;;;;;;;;;;;;;;;4.04;87.44;100962.87;1582480;89;21200;-77
2021/11/17 08:52:19;;;;;;;;;;;;;;;4.04;87.47;100961.55;1628962;88;20138;-77
2021/11/17 08:54:44;;;;;;;;;;;;;;;4.04;87.46;100956.28;1628815;86;20271;-77
2021/11/17 08:57:11;;;;;;;;;;;;;;;4.05;87.43;100964.53;1629347;86;20187;-76
2021/11/17 08:59:37;;;;;;;;;;;;;;;4.09;87.45;100962.03;1624534;88;20179;-77
2021/11/17 09:02:04;;;;;;;;;;;;;;;4.10;87.46;100959.77;1628907;87;21096;-77
2021/11/17 09:04:30;;;;;;;;;;;;;;;4.14;87.43;100961.23;1628399;87;20166;-77
2021/11/17 09:06:56;;;;;;;;;;;;;;;4.16;87.41;100959.30;1628700;88;20250;-77
2021/11/17 09:09:21;;;;;;;;;;;;;;;4.16;87.41;100961.94;1625970;86;20661;-77
2021/11/17 09:11:47;;;;;;;;;;;;;;;4.18;87.43;100964.48;1626799;87;20201;-77
2021/11/17 09:14:13;;;;;;;;;;;;;;;4.21;87.43;100965.09;1628152;88;21146;-77
2021/11/17 09:16:40;;;;;;;;;;;;;;;4.26;87.42;100968.20;1627970;86;20224;-78
2021/11/17 09:19:07;;;;;;;;;;;;;;;4.30;87.42;100969.66;1626091;86;20207;-78
2021/11/17 09:21:33;;;;;;;;;;;;;;;4.37;87.42;100962.11;1603362;88;20591;-78
2021/11/17 09:24:01;;;;;;;;;;;;;;;4.41;87.39;100970.17;1536483;90;20155;-78
2021/11/17 09:26:27;;;;;;;;;;;;;;;4.41;87.39;100962.25;1570050;90;21845;-78
2021/11/17 09:28:54;;;;;;;;;;;;;;;4.41;87.40;100959.61;1571678;90;20528;-77
2021/11/17 09:31:20;;;;;;;;;;;;;;;4.43;87.40;100964.31;1611108;88;20477;-77
2021/11/17 09:33:46;;;;;;;;;;;;;;;4.45;87.40;100967.19;1629048;88;20165;-78
2021/11/17 09:36:14;;;;;;;;;;;;;;;4.49;87.37;100963.83;1625651;86;20188;-77
2021/11/17 09:38:40;;;;;;;;;;;;;;;4.52;87.39;100962.27;1626591;86;21150;-77
2021/11/17 09:41:14;;;;;;;;;;;;;;;4.56;87.37;100960.23;1622296;86;20277;-78
2021/11/17 09:43:45;;;;;;;;;;;;;;;4.58;87.35;100967.55;1612350;87;20592;-78
2021/11/17 09:46:12;;;;;;;;;;;;;;;4.59;87.37;100962.64;1607983;86;20581;-77
2021/11/17 09:48:41;;;;;;;;;;;;;;;4.59;87.38;100961.32;1624723;88;20483;-78
2021/11/17 09:51:20;;;;;;;;;;;;;;;4.56;87.36;100958.92;1624417;86;21168;-76
2021/11/17 09:53:52;;;;;;;;;;;;;;;4.52;87.34;100961.80;1624032;88;20234;-76
2021/11/17 09:56:29;;;;;;;;;;;;;;;4.48;87.34;100951.58;1623360;87;20176;-76
2021/11/17 09:59:02;;;;;;;;;;;;;;;4.46;87.34;100954.35;1623767;87;20175;-76
2021/11/17 10:01:59;;;;;;;;;;;;;;;4.45;87.34;100956.63;1624426;87;20327;-76
2021/11/17 10:04:31;;;;;;;;;;;;;;;4.42;87.32;100947.62;1609024;88;21132;-77
2021/11/17 10:12:50;;;;;;;;;;;;;;;4.45;87.32;100942.10;1619507;88;20168;-76
2021/11/17 10:15:19;;;;;;;;;;;;;;;4.47;87.31;100948.09;1590721;88;20248;-76
2021/11/17 10:17:55;;;;;;;;;;;;;;;4.48;87.33;100951.10;1602821;88;21089;-76
2021/11/17 10:20:30;;;;;;;;;;;;;;;4.49;87.35;100944.88;1579244;90;20629;-77
2021/11/17 10:23:08;;;;;;;;;;;;;;;4.50;87.33;100943.89;1570004;88;20176;-76
2021/11/17 10:25:47;;;;;;;;;;;;;;;4.53;87.33;100946.32;1584735;90;20233;-77
2021/11/17 10:28:15;;;;;;;;;;;;;;;4.53;87.31;100947.64;1577830;89;20207;-77
2021/11/17 10:30:57;;;;;;;;;;;;;;;4.53;87.31;100939.72;1615834;88;21978;-78
2021/11/17 10:33:26;;;;;;;;;;;;;;;4.53;87.33;100947.64;1618634;88;20171;-78
2021/11/17 10:36:02;;;;;;;;;;;;;;;4.53;87.34;100944.16;1606841;88;20454;-78
2021/11/17 10:38:33;;;;;;;;;;;;;;;4.51;87.33;100942.94;1636213;86;20165;-77
2021/11/17 10:41:02;;;;;;;;;;;;;;;4.50;87.31;100942.57;1627806;86;20187;-77
2021/11/17 10:43:33;;;;;;;;;;;;;;;4.51;87.30;100940.30;1623610;88;21536;-75
2021/11/17 10:46:06;;;;;;;;;;;;;;;4.53;87.30;100939.72;1627987;86;20182;-76
2021/11/17 10:48:41;;;;;;;;;;;;;;;4.58;87.30;100946.42;1649797;85;20446;-76
2021/11/17 10:51:22;;;;;;;;;;;;;;;4.54;87.29;100932.14;1651659;86;20533;-77
2021/11/17 10:53:49;;;;;;;;;;;;;;;4.54;87.29;100934.78;1651918;86;20181;-77
2021/11/17 10:56:17;;;;;;;;;;;;;;;4.57;87.30;100932.41;1651485;86;21287;-76
2021/11/17 10:58:44;;;;;;;;;;;;;;;4.57;87.28;100926.27;1612853;88;20612;-76
2021/11/17 11:01:13;;;;;;;;;;;;;;;4.60;87.29;100931.31;1590515;90;20572;-79
2021/11/17 11:03:43;;;;;;;;;;;;;;;4.63;87.31;100928.43;1606496;88;20194;-75
2021/11/17 11:06:16;;;;;;;;;;;;;;;4.65;87.30;100922.06;1610386;87;20213;-75
2021/11/17 11:09:00;;;;;;;;;;;;;;;4.67;87.30;100917.99;1635667;87;21372;-76
2021/11/17 11:11:26;;;;;;;;;;;;;;;4.69;87.32;100918.70;1629706;87;20473;-75
2021/11/17 11:13:59;;;;;;;;;;;;;;;4.71;87.30;100912.84;1628059;87;20217;-76
2021/11/17 11:16:44;;;;;;;;;;;;;;;4.73;87.30;100920.15;1641119;86;20185;-76
2021/11/17 11:19:13;;;;;;;;;;;;;;;4.74;87.30;100916.55;1632720;86;20233;-76
2021/11/17 11:21:46;;;;;;;;;;;;;;;4.75;87.29;100909.81;1620491;88;21091;-76
2021/11/17 11:24:31;;;;;;;;;;;;;;;4.77;87.29;100913.67;1604829;89;20163;-76
2021/11/17 11:27:03;;;;;;;;;;;;;;;4.76;87.27;100910.66;1647574;87;20201;-76
2021/11/17 11:29:33;;;;;;;;;;;;;;;4.80;87.29;100913.42;1636377;86;20172;-75
2021/11/17 11:32:08;;;;;;;;;;;;;;;4.82;87.27;100907.56;1589764;89;20224;-74
2021/11/17 11:34:40;;;;;;;;;;;;;;;4.87;87.27;100910.66;1606100;89;21211;-75
2021/11/17 11:37:11;;;;;;;;;;;;;;;4.89;87.30;100906.11;1601142;89;20194;-73
2021/11/17 11:39:39;;;;;;;;;;;;;;;4.90;87.31;100906.45;1589636;88;20478;-76
2021/11/17 11:42:18;;;;;;;;;;;;;;;4.94;87.32;100910.06;1606824;89;20433;-76
2021/11/17 11:44:49;;;;;;;;;;;;;;;4.97;87.29;100901.88;1533401;93;20184;-77
2021/11/17 11:47:18;;;;;;;;;;;;;;;4.98;87.28;100894.80;1602955;87;21096;-76
2021/11/17 11:49:50;;;;;;;;;;;;;;;5.02;87.29;100893.59;1574937;90;20241;-76
2021/11/17 11:52:28;;;;;;;;;;;;;;;5.05;87.31;100890.70;1596787;89;20170;-76
2021/11/17 11:54:58;;;;;;;;;;;;;;;5.08;87.28;100886.48;1583964;90;20195;-76
2021/11/17 11:57:45;;;;;;;;;;;;;;;5.10;87.26;100896.48;1582553;90;20551;-76
2021/11/17 12:00:30;;;;;;;;;;;;;;;5.12;87.27;100899.83;1584239;90;22280;-76
2021/11/17 12:03:01;;;;;;;;;;;;;;;5.15;87.26;100901.37;1582935;90;20189;-76
2021/11/17 12:05:45;;;;;;;;;;;;;;;5.14;87.27;100901.85;1583636;89;20669;-75
2021/11/17 12:08:17;;;;;;;;;;;;;;;5.17;87.29;100896.34;1579351;88;20210;-75
2021/11/17 12:10:57;;;;;;;;;;;;;;;5.17;87.28;100900.31;1584004;90;20190;-76
2021/11/17 12:13:23;;;;;;;;;;;;;;;5.19;87.27;100899.70;1585246;87;21184;-76
2021/11/17 12:16:08;;;;;;;;;;;;;;;5.18;87.25;100891.39;1583519;90;20218;-76
2021/11/17 12:18:50;;;;;;;;;;;;;;;5.20;87.25;100893.45;1622828;88;20176;-75
2021/11/17 12:21:35;;;;;;;;;;;;;;;5.22;87.26;100892.83;1631645;86;20505;-75
2021/11/17 12:24:10;;;;;;;;;;;;;;;5.26;87.25;100899.56;1623074;88;20175;-75
2021/11/17 12:26:38;;;;;;;;;;;;;;;5.28;87.20;100891.48;1627838;88;21211;-76
2021/11/17 12:29:24;;;;;;;;;;;;;;;5.29;87.23;100892.70;1627030;88;20194;-75
2021/11/17 12:32:14;;;;;;;;;;;;;;;5.32;87.22;100904.34;1630202;86;20601;-76
2021/11/17 12:34:53;;;;;;;;;;;;;;;5.33;87.21;100895.45;1623480;88;20168;-75
2021/11/17 12:37:31;;;;;;;;;;;;;;;5.33;87.17;100902.55;1627074;88;20180;-75
2021/11/17 12:40:09;;;;;;;;;;;;;;;5.33;87.18;100895.45;1595822;88;21745;-75
2021/11/17 12:42:38;;;;;;;;;;;;;;;5.36;87.17;100897.84;1596507;89;20251;-76
2021/11/17 12:45:26;;;;;;;;;;;;;;;5.38;87.17;100893.26;1573810;90;20493;-77
2021/11/17 12:47:58;;;;;;;;;;;;;;;5.41;87.14;100891.72;1554606;90;20186;-77
2021/11/17 12:50:31;;;;;;;;;;;;;;;5.42;87.14;100890.73;1600557;88;20200;-77
2021/11/17 12:53:01;;;;;;;;;;;;;;;5.42;87.10;100892.05;1606794;88;21980;-76
2021/11/17 12:55:45;;;;;;;;;;;;;;;5.43;87.10;100893.73;1602930;89;20211;-76
2021/11/17 12:58:20;;;;;;;;;;;;;;;5.42;87.10;100893.38;1611165;88;20504;-77
2021/11/17 13:00:50;;;;;;;;;;;;;;;5.40;87.07;100896.64;1604121;88;20172;-77
2021/11/17 13:03:32;;;;;;;;;;;;;;;5.39;87.07;100894.11;1602944;88;20192;-77
2021/11/17 13:06:08;;;;;;;;;;;;;;;5.39;87.08;100889.66;1569089;91;21165;-76
2021/11/17 13:08:34;;;;;;;;;;;;;;;5.40;87.05;100888.70;1599884;89;20516;-77
2021/11/17 13:11:05;;;;;;;;;;;;;;;5.45;87.08;100887.83;1608278;89;20488;-77
2021/11/17 13:13:46;;;;;;;;;;;;;;;5.43;87.03;100886.28;1607720;89;20172;-77
2021/11/17 13:16:21;;;;;;;;;;;;;;;5.45;87.04;100890.98;1605362;89;20203;-77
2021/11/17 13:18:56;;;;;;;;;;;;;;;5.43;87.01;100888.45;1590244;89;21140;-78
2021/11/17 13:21:29;;;;;;;;;;;;;;;5.44;87.03;100886.65;1609110;87;20181;-78
2021/11/17 13:24:08;;;;;;;;;;;;;;;5.42;87.00;100893.38;1608456;88;20183;-78
2021/11/17 13:26:42;;;;;;;;;;;;;;;5.43;87.01;100893.73;1604800;89;20477;-78
2021/11/17 13:29:28;;;;;;;;;;;;;;;5.44;86.99;100895.43;1595439;89;20634;-78
2021/11/17 13:32:09;;;;;;;;;;;;;;;5.46;87.01;100884.70;1595973;89;21102;-77
2021/11/17 13:34:47;;;;;;;;;;;;;;;5.46;86.99;100894.81;1594971;89;20168;-77
2021/11/17 13:37:36;;;;;;;;;;;;;;;5.49;86.98;100893.70;1596100;88;20228;-78
2021/11/17 13:40:09;;;;;;;;;;;;;;;5.48;86.98;100886.28;1597892;88;20188;-78
2021/11/17 13:42:35;;;;;;;;;;;;;;;5.49;86.97;100890.59;1603191;88;20625;-78
2021/11/17 13:45:03;;;;;;;;;;;;;;;5.45;86.97;100885.69;1592576;89;21124;-77
2021/11/17 13:47:30;;;;;;;;;;;;;;;5.45;86.97;100897.09;1667567;85;20165;-78
2021/11/17 13:49:57;;;;;;;;;;;;;;;5.43;86.97;100896.86;1654454;86;20169;-78
2021/11/17 13:52:27;;;;;;;;;;;;;;;5.42;86.96;100897.34;1643699;87;20229;-78
2021/11/17 13:54:53;;;;;;;;;;;;;;;5.44;86.97;100899.88;1652153;86;20187;-77
2021/11/17 13:57:19;;;;;;;;;;;;;;;5.42;86.96;100902.63;1652384;86;21171;-77
2021/11/17 13:59:46;;;;;;;;;;;;;;;5.43;86.97;100903.00;1642911;85;20844;-77
2021/11/17 14:02:12;;;;;;;;;;;;;;;5.41;86.97;100907.58;1627567;86;20222;-78
2021/11/17 14:04:38;;;;;;;;;;;;;;;5.43;86.96;100904.31;1654807;86;20641;-78
2021/11/17 14:07:04;;;;;;;;;;;;;;;5.43;86.96;100904.31;1647244;87;20491;-77
2021/11/17 14:09:30;;;;;;;;;;;;;;;5.43;86.96;100904.31;1646754;86;21942;-77
2021/11/17 14:11:56;;;;;;;;;;;;;;;5.43;86.95;100900.35;1646638;87;20221;-77
2021/11/17 14:14:22;;;;;;;;;;;;;;;5.43;86.95;100906.96;1646995;87;20222;-77
2021/11/17 14:16:48;;;;;;;;;;;;;;;5.42;86.92;100897.34;1647050;87;20202;-78
2021/11/17 14:19:14;;;;;;;;;;;;;;;5.40;86.93;100899.28;1647118;87;20816;-78
2021/11/17 14:21:40;;;;;;;;;;;;;;;5.40;86.93;100899.28;1646978;87;21675;-78
2021/11/17 14:24:05;;;;;;;;;;;;;;;5.40;86.95;100897.12;1647052;87;20241;-78
2021/11/17 14:26:32;;;;;;;;;;;;;;;5.42;86.96;100897.34;1647167;87;20313;-77
2021/11/17 14:29:03;;;;;;;;;;;;;;;5.44;86.95;100896.75;1649173;86;20166;-77
2021/11/17 14:31:32;;;;;;;;;;;;;;;5.45;86.94;100897.09;1634596;85;20229;-78
2021/11/17 14:33:59;;;;;;;;;;;;;;;5.44;86.94;100898.55;1644537;87;21261;-77
2021/11/17 14:36:32;;;;;;;;;;;;;;;5.44;86.94;100894.11;1645153;86;20214;-77
2021/11/17 14:39:01;;;;;;;;;;;;;;;5.44;86.93;100897.23;1651755;84;20448;-78
2021/11/17 14:41:26;;;;;;;;;;;;;;;5.42;86.92;100893.85;1666801;85;20201;-77
2021/11/17 14:43:52;;;;;;;;;;;;;;;5.39;86.94;100897.59;1666374;86;20594;-77
2021/11/17 14:46:17;;;;;;;;;;;;;;;5.35;86.93;100897.48;1666494;86;21219;-78
2021/11/17 14:48:43;;;;;;;;;;;;;;;5.34;86.92;100889.21;1668145;85;20246;-78
2021/11/17 14:51:09;;;;;;;;;;;;;;;5.32;86.92;100888.48;1662350;86;20250;-78
2021/11/17 14:53:35;;;;;;;;;;;;;;;5.34;86.92;100891.86;1659839;86;20246;-78
2021/11/17 14:56:01;;;;;;;;;;;;;;;5.34;86.92;100891.86;1650743;85;20192;-77
2021/11/17 14:58:27;;;;;;;;;;;;;;;5.35;86.93;100887.38;1650426;87;21063;-78
2021/11/17 15:00:55;;;;;;;;;;;;;;;5.36;86.91;100888.59;1650016;87;20183;-78
2021/11/17 15:03:20;;;;;;;;;;;;;;;5.36;86.91;100893.03;1650342;87;20170;-78
2021/11/17 15:05:46;;;;;;;;;;;;;;;5.31;86.90;100889.44;1650442;86;20241;-77
2021/11/17 15:08:12;;;;;;;;;;;;;;;5.30;86.89;100889.09;1618385;88;20300;-77
2021/11/17 15:10:38;;;;;;;;;;;;;;;5.29;86.91;100886.09;1615657;87;21176;-77
2021/11/17 15:13:04;;;;;;;;;;;;;;;5.31;86.89;100881.50;1607399;86;20262;-77
2021/11/17 15:15:33;;;;;;;;;;;;;;;5.31;86.88;100881.50;1601944;88;20178;-77
2021/11/17 15:17:59;;;;;;;;;;;;;;;5.29;86.89;100884.77;1608690;88;20510;-77
2021/11/17 15:20:25;;;;;;;;;;;;;;;5.27;86.88;100885.38;1606195;88;20497;-77
2021/11/17 15:22:51;;;;;;;;;;;;;;;5.28;86.86;100883.08;1605590;88;21133;-77
2021/11/17 15:25:20;;;;;;;;;;;;;;;5.28;86.85;100879.11;1602775;88;20233;-76
2021/11/17 15:27:49;;;;;;;;;;;;;;;5.28;86.87;100886.20;1599669;89;20187;-77
2021/11/17 15:30:27;;;;;;;;;;;;;;;5.27;86.84;100890.67;1600261;89;20175;-77
2021/11/17 15:32:53;;;;;;;;;;;;;;;5.24;86.88;100882.95;1598583;89;20186;-76
2021/11/17 15:35:24;;;;;;;;;;;;;;;5.24;86.87;100889.57;1598418;89;21127;-77
2021/11/17 15:37:51;;;;;;;;;;;;;;;5.24;86.87;100896.18;1599943;89;20206;-76
2021/11/17 15:40:19;;;;;;;;;;;;;;;5.24;86.86;100898.83;1597126;89;20174;-77
2021/11/17 15:42:46;;;;;;;;;;;;;;;5.25;86.85;100897.02;1600368;89;20151;-76
2021/11/17 15:45:12;;;;;;;;;;;;;;;5.25;86.85;100897.02;1600315;89;20198;-77
2021/11/17 15:47:37;;;;;;;;;;;;;;;5.23;86.83;100893.20;1600036;89;21799;-77
2021/11/17 15:50:13;;;;;;;;;;;;;;;5.23;86.85;100887.06;1598171;89;20212;-75